createdAt,value
2022-11-21T00:00:33.687Z,9.40
2022-11-21T00:03:03.198Z,9.30
2022-11-21T00:05:31.302Z,10.07
2022-11-21T00:07:58.998Z,8.57
2022-11-21T00:10:26.992Z,8.63
2022-11-21T00:12:55.214Z,8.85
2022-11-21T00:15:22.698Z,9.15
2022-11-21T00:17:50.171Z,8.93
2022-11-21T00:20:19.793Z,8.48
2022-11-21T00:22:47.511Z,8.55
2022-11-21T00:25:15.255Z,9.00
2022-11-21T00:27:42.899Z,8.70
2022-11-21T00:30:11.451Z,9.13
2022-11-21T00:32:38.970Z,9.32
2022-11-21T00:35:06.824Z,8.70
2022-11-21T00:37:35.657Z,9.32
2022-11-21T00:40:03.218Z,8.38
2022-11-21T00:42:30.714Z,8.80
2022-11-21T00:44:58.226Z,9.35
2022-11-21T00:47:25.724Z,9.02
2022-11-21T00:49:53.198Z,8.50
2022-11-21T00:52:20.646Z,8.30
2022-11-21T00:54:49.493Z,8.65
2022-11-21T00:57:16.937Z,8.52
2022-11-21T00:59:44.444Z,8.45
2022-11-21T01:02:13.727Z,8.70
2022-11-21T01:04:41.252Z,9.38
2022-11-21T01:07:08.723Z,8.77
2022-11-21T01:09:36.245Z,8.32
2022-11-21T01:12:05.323Z,8.25
2022-11-21T01:14:32.893Z,8.68
2022-11-21T01:17:00.364Z,8.98
2022-11-21T01:19:27.834Z,9.23
2022-11-21T01:21:55.279Z,8.80
2022-11-21T01:24:22.742Z,9.05
2022-11-21T01:26:51.014Z,9.07
2022-11-21T01:29:19.893Z,8.57
2022-11-21T01:31:47.340Z,8.85
2022-11-21T01:34:14.984Z,9.30
2022-11-21T01:36:42.488Z,8.98
2022-11-21T01:39:11.456Z,9.40
2022-11-21T01:41:40.229Z,9.50
2022-11-21T01:44:19.939Z,8.10
2022-11-21T01:46:49.011Z,8.20
2022-11-21T01:49:18.590Z,8.10
2022-11-21T01:51:48.656Z,8.68
2022-11-21T01:54:19.739Z,9.05
2022-11-21T01:56:49.464Z,8.35
2022-11-21T01:59:18.502Z,8.90
2022-11-21T02:01:47.374Z,8.80
2022-11-21T02:04:16.578Z,9.15
2022-11-21T02:06:44.498Z,8.85
2022-11-21T02:09:12.082Z,9.55
2022-11-21T02:11:41.607Z,9.18
2022-11-21T02:14:09.832Z,9.55
2022-11-21T02:16:37.586Z,9.23
2022-11-21T02:19:05.879Z,8.93
2022-11-21T02:21:40.495Z,8.18
2022-11-21T02:24:13.297Z,9.32
2022-11-21T02:26:42.422Z,9.10
2022-11-21T02:29:09.954Z,8.55
2022-11-21T02:31:37.426Z,8.55
2022-11-21T02:34:04.894Z,8.82
2022-11-21T02:36:42.942Z,9.35
2022-11-21T02:41:38.867Z,7.97
2022-11-21T02:44:10.250Z,8.23
2022-11-21T02:46:37.747Z,8.30
2022-11-21T02:49:07.524Z,9.00
2022-11-21T02:51:34.974Z,8.38
2022-11-21T02:54:02.436Z,9.38
2022-11-21T02:56:30.200Z,9.05
2022-11-21T02:58:58.140Z,8.23
2022-11-21T03:01:26.998Z,8.48
2022-11-21T03:03:54.450Z,8.82
2022-11-21T03:06:21.928Z,9.07
2022-11-21T03:08:49.398Z,9.05
2022-11-21T03:11:16.862Z,8.85
2022-11-21T03:13:44.297Z,9.27
2022-11-21T03:16:11.758Z,8.55
2022-11-21T03:18:40.595Z,8.55
2022-11-21T03:21:08.038Z,9.20
2022-11-21T03:23:35.526Z,8.75
2022-11-21T03:26:03.008Z,8.75
2022-11-21T03:28:30.460Z,8.85
2022-11-21T03:30:57.920Z,9.68
2022-11-21T03:33:25.397Z,8.80
2022-11-21T03:35:54.250Z,8.80
2022-11-21T03:38:21.721Z,8.68
2022-11-21T03:40:49.215Z,9.93
2022-11-21T03:43:16.768Z,8.75
2022-11-21T03:45:46.661Z,9.45
2022-11-21T03:48:14.377Z,9.82
2022-11-21T03:50:43.103Z,9.07
2022-11-21T03:53:12.019Z,8.15
2022-11-21T03:55:39.558Z,9.15
2022-11-21T03:58:07.014Z,9.30
2022-11-21T04:00:34.533Z,9.10
2022-11-21T04:03:01.983Z,9.52
2022-11-21T04:05:29.482Z,9.88
2022-11-21T04:07:56.922Z,9.07
2022-11-21T04:10:25.724Z,9.00
2022-11-21T04:12:53.149Z,8.82
2022-11-21T04:15:20.650Z,9.38
2022-11-21T04:17:48.119Z,9.73
2022-11-21T04:20:16.113Z,9.13
2022-11-21T04:22:43.629Z,9.82
2022-11-21T04:25:11.238Z,8.52
2022-11-21T04:27:40.074Z,9.70
2022-11-21T04:30:07.904Z,9.80
2022-11-21T04:32:35.371Z,9.60
2022-11-21T04:35:02.851Z,10.23
2022-11-21T04:37:30.420Z,9.38
2022-11-21T04:39:57.967Z,9.48
2022-11-21T04:42:25.613Z,8.57
2022-11-21T04:44:54.456Z,8.77
2022-11-21T04:47:21.924Z,9.80
2022-11-21T04:49:49.433Z,9.27
2022-11-21T04:52:16.877Z,10.00
2022-11-21T04:54:44.384Z,9.65
2022-11-21T04:57:11.833Z,10.10
2022-11-21T04:59:39.327Z,9.93
2022-11-21T05:02:08.148Z,8.95
2022-11-21T05:04:35.665Z,9.30
2022-11-21T05:07:03.200Z,9.95
2022-11-21T05:09:30.683Z,9.23
2022-11-21T05:12:15.689Z,8.63
2022-11-21T05:14:43.172Z,8.82
2022-11-21T05:17:12.030Z,9.02
2022-11-21T05:19:39.541Z,8.38
2022-11-21T05:22:07.045Z,12.55
2022-11-21T05:24:34.588Z,8.63
2022-11-21T05:27:02.085Z,8.98
2022-11-21T05:29:29.534Z,9.85
2022-11-21T05:31:56.985Z,9.65
2022-11-21T05:34:26.064Z,9.23
2022-11-21T05:36:57.079Z,9.20
2022-11-21T05:39:24.614Z,9.30
2022-11-21T05:41:52.103Z,10.00
2022-11-21T05:44:18.544Z,10.02
2022-11-21T05:46:46.414Z,10.55
2022-11-21T05:49:13.922Z,9.80
2022-11-21T05:51:42.780Z,10.45
2022-11-21T05:54:13.094Z,10.20
2022-11-21T05:56:40.535Z,9.25
2022-11-21T05:59:08.058Z,11.27
2022-11-21T06:01:55.197Z,10.48
2022-11-21T06:04:22.775Z,10.63
2022-11-21T06:06:51.589Z,10.52
2022-11-21T06:09:19.079Z,9.88
2022-11-21T06:11:46.529Z,9.60
2022-11-21T06:14:14.016Z,10.35
2022-11-21T06:16:41.473Z,11.07
2022-11-21T06:19:08.920Z,9.32
2022-11-21T06:21:37.247Z,9.95
2022-11-21T06:24:06.514Z,10.35
2022-11-21T06:26:33.974Z,11.02
2022-11-21T06:29:01.417Z,10.23
2022-11-21T06:31:28.881Z,11.00
2022-11-21T06:33:56.958Z,10.27
2022-11-21T06:36:24.493Z,10.02
2022-11-21T06:38:54.035Z,9.88
2022-11-21T06:41:23.492Z,10.68
2022-11-21T06:43:51.052Z,9.43
2022-11-21T06:46:18.640Z,9.50
2022-11-21T06:48:46.316Z,11.32
2022-11-21T06:51:14.474Z,10.75
2022-11-21T06:53:41.970Z,9.43
2022-11-21T06:56:09.454Z,10.65
2022-11-21T06:58:38.456Z,9.95
2022-11-21T07:01:06.673Z,11.00
2022-11-21T07:03:34.390Z,10.60
2022-11-21T07:06:02.597Z,10.30
2022-11-21T07:08:30.340Z,9.90
2022-11-21T07:11:23.687Z,10.40
2022-11-21T07:13:46.701Z,11.18
2022-11-21T07:16:15.210Z,10.95
2022-11-21T07:18:42.959Z,10.90
2022-11-21T07:21:10.883Z,11.18
2022-11-21T07:23:38.615Z,10.90
2022-11-21T07:26:07.234Z,10.48
2022-11-21T07:28:35.010Z,11.68
2022-11-21T07:31:10.031Z,10.77
2022-11-21T07:33:40.496Z,12.30
2022-11-21T07:36:08.033Z,11.07
2022-11-21T07:38:35.492Z,9.90
2022-11-21T07:41:03.024Z,11.40
2022-11-21T07:43:30.482Z,11.93
2022-11-21T07:45:57.956Z,12.13
2022-11-21T07:48:26.775Z,11.60
2022-11-21T07:50:54.226Z,11.85
2022-11-21T07:53:21.709Z,11.63
2022-11-21T07:55:49.162Z,11.27
2022-11-21T07:58:18.044Z,12.65
2022-11-21T08:00:45.608Z,11.55
2022-11-21T08:03:13.740Z,11.63
2022-11-21T08:05:43.336Z,11.43
2022-11-21T08:08:11.054Z,11.43
2022-11-21T08:10:38.876Z,13.63
2022-11-21T08:13:06.574Z,12.88
2022-11-21T08:15:34.052Z,14.15
2022-11-21T08:18:09.895Z,17.35
2022-11-21T08:20:37.393Z,15.20
2022-11-21T08:23:06.864Z,14.00
2022-11-21T08:25:34.332Z,14.57
2022-11-21T08:28:02.717Z,13.82
2022-11-21T08:30:30.216Z,14.55
2022-11-21T08:32:58.388Z,14.57
2022-11-21T08:35:26.014Z,15.18
2022-11-21T08:37:56.271Z,17.02
2022-11-21T08:40:25.165Z,15.60
2022-11-21T08:42:57.012Z,15.45
2022-11-21T08:45:24.511Z,12.95
2022-11-21T08:47:52.043Z,13.93
2022-11-21T08:50:19.641Z,14.65
2022-11-21T08:52:47.327Z,11.07
2022-11-21T08:55:14.873Z,12.95
2022-11-21T08:57:43.683Z,12.48
2022-11-21T09:00:13.180Z,12.63
2022-11-21T09:02:40.674Z,12.55
2022-11-21T09:05:08.850Z,12.05
2022-11-21T09:07:36.599Z,12.05
2022-11-21T09:10:04.534Z,12.98
2022-11-21T09:12:32.338Z,11.90
2022-11-21T09:15:18.412Z,12.20
2022-11-21T09:18:03.297Z,11.90
2022-11-21T09:20:31.008Z,12.43
2022-11-21T09:22:58.549Z,12.45
2022-11-21T09:25:26.017Z,14.85
2022-11-21T09:27:53.530Z,12.70
2022-11-21T09:30:22.450Z,12.15
2022-11-21T09:32:49.939Z,12.40
2022-11-21T09:35:17.417Z,11.68
2022-11-21T09:37:44.914Z,13.38
2022-11-21T09:40:14.480Z,12.20
2022-11-21T09:42:53.525Z,13.68
2022-11-21T09:45:24.285Z,12.75
2022-11-21T09:47:52.841Z,13.63
2022-11-21T09:50:25.153Z,11.18
2022-11-21T09:52:54.154Z,12.13
2022-11-21T09:55:24.745Z,13.60
2022-11-21T09:57:52.336Z,12.38
2022-11-21T10:00:23.046Z,11.02
2022-11-21T10:02:51.007Z,12.93
2022-11-21T10:05:20.038Z,11.65
2022-11-21T10:07:47.627Z,10.50
2022-11-21T10:10:20.746Z,11.98
2022-11-21T10:12:54.683Z,9.20
2022-11-21T10:15:32.918Z,10.50
2022-11-21T10:18:09.633Z,9.25
2022-11-21T10:20:45.032Z,12.27
2022-11-21T10:23:23.248Z,10.68
2022-11-21T10:25:53.691Z,10.15
2022-11-21T10:28:26.222Z,10.55
2022-11-21T10:30:56.918Z,11.02
2022-11-21T10:33:27.633Z,9.07
2022-11-21T10:35:58.707Z,7.85
2022-11-21T10:38:27.122Z,9.18
2022-11-21T10:40:56.267Z,9.75
2022-11-21T10:43:46.730Z,8.77
2022-11-21T10:46:15.626Z,7.30
2022-11-21T10:48:43.105Z,8.38
2022-11-21T10:51:33.692Z,8.70
2022-11-21T10:54:22.881Z,7.97
2022-11-21T10:56:50.880Z,8.52
2022-11-21T10:59:28.613Z,7.82
2022-11-21T11:02:00.080Z,6.25
2022-11-21T11:04:44.096Z,7.35
2022-11-21T11:07:21.202Z,6.75
2022-11-21T11:09:48.654Z,6.80
2022-11-21T11:12:49.789Z,7.20
2022-11-21T11:15:18.649Z,7.18
2022-11-21T11:17:50.697Z,5.40
2022-11-21T11:20:30.060Z,7.50
2022-11-21T11:22:57.550Z,7.03
2022-11-21T11:25:25.062Z,7.13
2022-11-21T11:27:52.543Z,7.50
2022-11-21T11:30:21.259Z,6.97
2022-11-21T11:32:50.123Z,6.03
2022-11-21T11:35:22.697Z,7.35
2022-11-21T11:37:58.147Z,6.38
2022-11-21T11:40:28.993Z,6.90
2022-11-21T11:43:42.697Z,6.50
2022-11-21T11:46:47.088Z,6.43
2022-11-21T11:49:21.148Z,5.85
2022-11-21T11:51:52.226Z,6.22
2022-11-21T11:54:20.986Z,6.90
2022-11-21T11:56:48.985Z,6.05
2022-11-21T11:59:20.704Z,4.80
2022-11-21T12:01:51.772Z,6.25
2022-11-21T12:04:21.841Z,6.18
2022-11-21T12:09:41.399Z,5.82
2022-11-21T12:12:12.856Z,5.70
2022-11-21T12:15:03.333Z,6.00
2022-11-21T12:17:33.415Z,5.45
2022-11-21T12:20:04.535Z,5.45
2022-11-21T12:22:32.015Z,5.47
2022-11-21T12:24:59.492Z,5.00
2022-11-21T12:27:29.569Z,5.22
2022-11-21T12:30:09.938Z,5.68
2022-11-21T12:32:47.057Z,5.68
2022-11-21T12:35:30.752Z,6.00
2022-11-21T12:38:04.345Z,5.88
2022-11-21T12:40:38.926Z,6.38
2022-11-21T12:43:10.881Z,6.57
2022-11-21T12:45:39.599Z,6.78
2022-11-21T12:48:34.036Z,7.05
2022-11-21T12:51:31.230Z,6.72
2022-11-21T12:54:20.627Z,7.85
2022-11-21T12:56:50.332Z,7.60
2022-11-21T12:59:19.437Z,6.72
2022-11-21T13:01:52.310Z,8.77
2022-11-21T13:04:23.947Z,6.55
2022-11-21T13:09:21.187Z,8.00
2022-11-21T13:12:00.562Z,7.68
2022-11-21T13:14:41.758Z,7.40
2022-11-21T13:17:15.909Z,6.82
2022-11-21T13:19:47.203Z,6.70
2022-11-21T13:22:33.282Z,7.97
2022-11-21T13:25:03.120Z,7.40
2022-11-21T13:27:37.917Z,7.45
2022-11-21T13:30:19.851Z,8.05
2022-11-21T13:32:49.687Z,7.30
2022-11-21T13:35:47.302Z,6.70
2022-11-21T13:38:14.757Z,7.28
2022-11-21T13:41:04.158Z,6.95
2022-11-21T13:43:33.739Z,7.10
2022-11-21T13:46:01.908Z,7.38
2022-11-21T13:48:47.394Z,7.28
2022-11-21T13:51:24.806Z,7.70
2022-11-21T13:54:06.387Z,7.30
2022-11-21T13:56:41.890Z,6.95
2022-11-21T13:59:17.988Z,7.32
2022-11-21T14:02:01.441Z,7.45
2022-11-21T14:04:42.265Z,7.82
2022-11-21T14:07:27.161Z,6.93
2022-11-21T14:09:56.493Z,7.90
2022-11-21T14:12:33.058Z,7.13
2022-11-21T14:15:16.476Z,7.00
2022-11-21T14:17:47.100Z,7.13
2022-11-21T14:20:16.455Z,7.35
2022-11-21T14:22:47.539Z,7.13
2022-11-21T14:25:17.656Z,7.80
2022-11-21T14:27:48.778Z,8.80
2022-11-21T14:30:27.999Z,7.35
2022-11-21T14:32:55.551Z,7.47
2022-11-21T14:35:23.669Z,9.20
2022-11-21T14:37:51.172Z,9.07
2022-11-21T14:40:21.155Z,8.18
2022-11-21T14:42:50.014Z,8.40
2022-11-21T14:45:19.561Z,8.35
2022-11-21T14:47:47.826Z,7.65
2022-11-21T14:50:22.963Z,7.80
2022-11-21T14:52:56.969Z,8.43
2022-11-21T14:55:30.978Z,8.48
2022-11-21T14:58:01.867Z,8.50
2022-11-21T15:03:20.503Z,8.30
2022-11-21T15:06:07.411Z,9.43
2022-11-21T15:11:25.061Z,8.43
2022-11-21T15:14:15.115Z,8.88
2022-11-21T15:16:43.530Z,9.70
2022-11-21T15:19:11.263Z,9.52
2022-11-21T15:21:38.761Z,9.35
2022-11-21T15:24:16.710Z,7.28
2022-11-21T15:26:44.244Z,8.10
2022-11-21T15:29:20.785Z,8.63
2022-11-21T15:31:48.299Z,8.30
2022-11-21T15:34:35.884Z,9.20
2022-11-21T15:37:05.484Z,8.23
2022-11-21T15:39:34.426Z,8.77
2022-11-21T15:42:20.498Z,8.60
2022-11-21T15:45:02.088Z,9.63
2022-11-21T15:47:29.622Z,10.13
2022-11-21T15:49:57.203Z,9.60
2022-11-21T15:52:24.749Z,9.10
2022-11-21T15:54:52.253Z,9.00
2022-11-21T15:59:47.317Z,8.40
2022-11-21T16:02:16.202Z,8.18
2022-11-21T16:04:43.676Z,7.95
2022-11-21T16:07:11.210Z,8.45
2022-11-21T16:09:38.791Z,8.00
2022-11-21T16:12:06.527Z,8.60
2022-11-21T16:14:33.997Z,8.40
2022-11-21T16:17:01.455Z,8.77
2022-11-21T16:19:31.086Z,8.95
2022-11-21T16:21:58.750Z,8.73
2022-11-21T16:24:26.237Z,8.20
2022-11-21T16:26:55.286Z,7.68
2022-11-21T16:29:22.933Z,8.50
2022-11-21T16:31:51.182Z,8.25
2022-11-21T16:34:19.395Z,8.35
2022-11-21T16:36:48.263Z,8.55
2022-11-21T16:39:18.404Z,9.50
2022-11-21T16:41:47.318Z,7.85
2022-11-21T16:44:15.727Z,9.10
2022-11-21T16:46:44.968Z,9.02
2022-11-21T16:49:12.449Z,9.23
2022-11-21T16:51:39.901Z,9.20
2022-11-21T16:54:09.550Z,8.52
2022-11-21T16:56:37.360Z,9.32
2022-11-21T16:59:04.986Z,9.48
2022-11-21T17:01:32.573Z,9.30
2022-11-21T17:04:00.196Z,8.82
2022-11-21T17:06:30.014Z,8.95
2022-11-21T17:08:57.542Z,9.70
2022-11-21T17:11:28.808Z,9.27
2022-11-21T17:13:57.259Z,9.27
2022-11-21T17:16:24.853Z,9.05
2022-11-21T17:18:53.708Z,9.52
2022-11-21T17:21:21.161Z,9.75
2022-11-21T17:23:48.713Z,10.20
2022-11-21T17:26:17.037Z,10.93
2022-11-21T17:28:46.367Z,9.68
2022-11-21T17:31:14.853Z,10.77
2022-11-21T17:33:42.615Z,9.77
2022-11-21T17:36:12.262Z,10.45
2022-11-21T17:38:40.778Z,10.48
2022-11-21T17:41:09.584Z,10.95
2022-11-21T17:43:37.132Z,9.75
2022-11-21T17:46:09.952Z,10.15
2022-11-21T17:48:38.271Z,11.93
2022-11-21T17:51:06.865Z,10.45
2022-11-21T17:53:34.792Z,11.25
2022-11-21T17:56:03.223Z,12.77
2022-11-21T17:58:30.976Z,11.02
2022-11-21T18:00:59.701Z,11.35
2022-11-21T18:03:28.996Z,10.80
2022-11-21T18:06:04.004Z,10.75
2022-11-21T18:08:31.811Z,10.70
2022-11-21T18:10:59.299Z,10.88
2022-11-21T18:13:27.176Z,10.73
2022-11-21T18:15:54.964Z,10.43
2022-11-21T18:18:22.475Z,11.45
2022-11-21T18:20:51.857Z,10.27
2022-11-21T18:23:19.380Z,10.70
2022-11-21T18:25:47.068Z,10.43
2022-11-21T18:28:14.534Z,10.10
2022-11-21T18:30:41.968Z,11.00
2022-11-21T18:33:10.739Z,10.80
2022-11-21T18:35:40.908Z,9.55
2022-11-21T18:38:09.801Z,10.48
2022-11-21T18:40:37.605Z,10.80
2022-11-21T18:43:05.111Z,11.48
2022-11-21T18:45:32.664Z,11.05
2022-11-21T18:48:00.402Z,11.65
2022-11-21T18:50:27.958Z,11.02
2022-11-21T18:52:55.515Z,10.93
2022-11-21T18:55:24.312Z,10.25
2022-11-21T18:57:51.777Z,10.68
2022-11-21T19:00:19.438Z,10.85
2022-11-21T19:02:48.048Z,10.45
2022-11-21T19:05:20.344Z,9.80
2022-11-21T19:07:48.246Z,9.70
2022-11-21T19:10:41.303Z,9.93
2022-11-21T19:13:04.694Z,10.73
2022-11-21T19:15:32.268Z,9.57
2022-11-21T19:17:59.729Z,10.05
2022-11-21T19:20:27.215Z,10.23
2022-11-21T19:22:54.675Z,9.93
2022-11-21T19:25:22.132Z,10.20
2022-11-21T19:27:49.623Z,9.85
2022-11-21T19:30:18.873Z,10.63
2022-11-21T19:32:46.321Z,9.77
2022-11-21T19:35:13.858Z,9.98
2022-11-21T19:37:41.339Z,8.98
2022-11-21T19:40:09.468Z,8.68
2022-11-21T19:42:36.964Z,8.98
2022-11-21T19:45:04.678Z,8.32
2022-11-21T19:47:33.943Z,8.60
2022-11-21T19:50:01.403Z,8.20
2022-11-21T19:52:28.893Z,7.55
2022-11-21T19:54:56.377Z,8.85
2022-11-21T19:57:23.866Z,8.10
2022-11-21T19:59:51.301Z,8.38
2022-11-21T20:02:19.550Z,8.10
2022-11-21T20:04:48.446Z,8.73
2022-11-21T20:07:16.028Z,8.20
2022-11-21T20:09:43.551Z,7.57
2022-11-21T20:12:11.054Z,7.70
2022-11-21T20:14:38.503Z,8.10
2022-11-21T20:17:05.997Z,6.35
2022-11-21T20:19:33.530Z,7.20
2022-11-21T20:22:02.378Z,7.35
2022-11-21T20:24:30.121Z,6.82
2022-11-21T20:26:59.238Z,6.88
2022-11-21T20:29:26.938Z,6.68
2022-11-21T20:31:54.994Z,6.90
2022-11-21T20:34:23.097Z,7.00
2022-11-21T20:36:51.198Z,7.35
2022-11-21T20:39:20.214Z,6.53
2022-11-21T20:41:48.183Z,7.20
2022-11-21T20:47:04.571Z,6.88
2022-11-21T20:49:32.342Z,7.88
2022-11-21T20:54:48.826Z,6.60
2022-11-21T20:57:16.343Z,6.18
2022-11-21T20:59:43.922Z,7.05
2022-11-21T21:02:13.814Z,7.45
2022-11-21T21:04:41.636Z,7.45
2022-11-21T21:07:09.279Z,7.20
2022-11-21T21:09:36.868Z,7.50
2022-11-21T21:12:06.138Z,7.22
2022-11-21T21:14:33.598Z,7.38
2022-11-21T21:17:01.051Z,7.78
2022-11-21T21:19:28.962Z,8.65
2022-11-21T21:21:56.659Z,7.88
2022-11-21T21:24:24.159Z,7.80
2022-11-21T21:26:51.623Z,7.72
2022-11-21T21:29:21.265Z,8.85
2022-11-21T21:31:52.807Z,7.85
2022-11-21T21:34:20.832Z,8.20
2022-11-21T21:36:48.410Z,8.93
2022-11-21T21:39:15.941Z,8.45
2022-11-21T21:41:46.796Z,8.20
2022-11-21T21:44:14.987Z,7.97
2022-11-21T21:46:44.055Z,8.77
2022-11-21T21:49:11.811Z,7.47
2022-11-21T21:51:39.918Z,7.22
2022-11-21T21:54:07.434Z,7.18
2022-11-21T21:56:34.948Z,7.85
2022-11-21T21:59:02.471Z,7.80
2022-11-21T22:01:30.981Z,7.25
2022-11-21T22:04:00.515Z,8.13
2022-11-21T22:06:28.004Z,7.78
2022-11-21T22:08:56.269Z,7.13
2022-11-21T22:11:24.946Z,7.10
2022-11-21T22:13:53.198Z,7.88
2022-11-21T22:16:20.711Z,7.18
2022-11-21T22:18:48.203Z,7.40
2022-11-21T22:21:18.163Z,8.13
2022-11-21T22:24:09.336Z,7.95
2022-11-21T22:26:33.217Z,7.57
2022-11-21T22:29:00.676Z,7.93
2022-11-21T22:31:30.383Z,7.72
2022-11-21T22:33:57.844Z,7.88
2022-11-21T22:36:26.864Z,7.50
2022-11-21T22:38:54.689Z,7.93
2022-11-21T22:41:23.130Z,7.78
2022-11-21T22:43:51.175Z,8.40
2022-11-21T22:46:19.084Z,8.20
2022-11-21T22:48:46.550Z,8.55
2022-11-21T22:51:14.410Z,8.07
2022-11-21T22:53:43.218Z,8.95
2022-11-21T22:56:11.351Z,8.18
2022-11-21T22:58:39.665Z,8.02
2022-11-21T23:01:07.931Z,9.00
2022-11-21T23:03:35.964Z,9.23
2022-11-21T23:06:03.860Z,8.88
2022-11-21T23:08:31.614Z,8.52
2022-11-21T23:11:04.771Z,8.80
2022-11-21T23:13:32.274Z,9.02
2022-11-21T23:15:59.766Z,8.55
2022-11-21T23:18:27.358Z,9.38
2022-11-21T23:20:54.863Z,8.43
2022-11-21T23:23:22.368Z,8.40
2022-11-21T23:25:49.930Z,9.13
2022-11-21T23:28:19.176Z,8.75
2022-11-21T23:30:47.983Z,8.55
2022-11-21T23:33:15.716Z,9.30
2022-11-21T23:35:43.536Z,8.63
2022-11-21T23:38:11.324Z,8.50
2022-11-21T23:40:38.802Z,7.97
2022-11-21T23:43:06.606Z,8.45
2022-11-21T23:45:35.436Z,8.25
2022-11-21T23:48:02.905Z,7.68
2022-11-21T23:50:30.368Z,7.60
2022-11-21T23:52:57.877Z,8.13
2022-11-21T23:55:25.301Z,8.38
2022-11-21T23:57:52.790Z,8.70
